Time;durP1;ratioP1;P1;durP2;ratioP2;P2;SDS_P1;SDS_P2;PMS_P1;PMS_P2;Temp;Humidity;BMP_temperature;BMP_pressure;BME280_temperature;BME280_humidity;BME280_pressure;Samples;Min_cycle;Max_cycle;Signal;HPM_P1;HPM_P2
2023/05/14 00:00:32;;;;;;;6.67;6.07;;;;;;;8.19;100.00;96396.31;7394671;19;20803;-75
2023/05/14 00:02:59;;;;;;;5.73;5.33;;;;;;;8.08;100.00;96380.03;7394359;19;20349;-75
2023/05/14 00:05:26;;;;;;;6.57;5.47;;;;;;;8.01;100.00;96382.34;7396115;19;20380;-75
2023/05/14 00:07:53;;;;;;;6.33;5.70;;;;;;;7.90;100.00;96367.94;7393062;19;20964;-75
2023/05/14 00:10:20;;;;;;;8.00;6.73;;;;;;;7.90;100.00;96384.50;7394485;19;21059;-75
2023/05/14 00:12:48;;;;;;;7.33;6.63;;;;;;;7.75;100.00;96363.13;7395960;19;20344;-75
2023/05/14 00:15:14;;;;;;;7.13;6.50;;;;;;;7.69;100.00;96368.50;7395897;19;20372;-75
2023/05/14 00:17:41;;;;;;;7.13;6.53;;;;;;;7.62;100.00;96349.78;7394092;19;20925;-75
2023/05/14 00:20:10;;;;;;;7.43;6.50;;;;;;;7.53;100.00;96353.44;7396574;19;20475;-74
2023/05/14 00:22:38;;;;;;;8.23;7.43;;;;;;;7.69;100.00;96381.66;7395823;19;20376;-75
2023/05/14 00:25:07;;;;;;;8.10;7.40;;;;;;;7.63;100.00;96367.09;7395553;19;20912;-74
2023/05/14 00:27:36;;;;;;;12.23;10.10;;;;;;;7.45;100.00;96349.69;7393214;19;20398;-74
2023/05/14 00:30:05;;;;;;;14.93;11.83;;;;;;;7.41;100.00;96352.16;7395073;19;20504;-74
2023/05/14 00:32:32;;;;;;;15.87;12.23;;;;;;;7.56;100.00;96366.75;7395756;19;20375;-74
2023/05/14 00:35:01;;;;;;;13.90;10.90;;;;;;;7.54;100.00;96352.38;7392600;19;20419;-74
2023/05/14 00:37:29;;;;;;;14.70;11.30;;;;;;;7.49;100.00;96344.63;7394447;19;20360;-74
2023/05/14 00:39:56;;;;;;;12.57;10.30;;;;;;;7.38;100.00;96325.72;7392018;19;20401;-75
2023/05/14 00:42:22;;;;;;;13.30;11.90;;;;;;;7.38;100.00;96328.34;7394683;19;20377;-75
2023/05/14 00:44:49;;;;;;;12.40;9.33;;;;;;;7.56;100.00;96366.00;7392903;19;20451;-74
2023/05/14 00:47:16;;;;;;;9.93;9.03;;;;;;;7.54;100.00;96342.63;7394167;19;20369;-74
2023/05/14 00:49:44;;;;;;;10.30;8.60;;;;;;;7.59;100.00;96360.13;7399088;19;21030;-74
2023/05/14 00:52:11;;;;;;;8.73;7.90;;;;;;;7.57;100.00;96364.91;7401650;19;20713;-74
2023/05/14 00:54:39;;;;;;;10.00;8.57;;;;;;;7.53;100.00;96361.34;7400105;19;20389;-75
2023/05/14 00:57:06;;;;;;;8.83;7.83;;;;;;;7.44;100.00;96363.94;7402338;19;20368;-74
2023/05/14 00:59:33;;;;;;;8.93;8.10;;;;;;;7.23;100.00;96345.31;7399480;19;20401;-74
2023/05/14 01:02:00;;;;;;;8.10;7.00;;;;;;;7.25;100.00;96343.16;7401509;19;20368;-74
2023/05/14 01:04:28;;;;;;;7.40;6.70;;;;;;;7.14;100.00;96331.34;7401366;19;20353;-74
2023/05/14 01:06:58;;;;;;;9.57;8.60;;;;;;;7.21;100.00;96351.94;7400608;19;20374;-75
2023/05/14 01:09:33;;;;;;;7.83;7.17;;;;;;;7.23;100.00;96342.69;7399605;19;20588;-74
2023/05/14 01:12:00;;;;;;;7.80;6.97;;;;;;;7.24;100.00;96352.13;7401600;19;20393;-74
2023/05/14 01:14:37;;;;;;;7.67;6.97;;;;;;;6.88;100.00;96319.94;7400224;19;20378;-74
2023/05/14 01:17:05;;;;;;;8.40;7.70;;;;;;;6.81;100.00;96309.84;7402178;19;20400;-74
2023/05/14 01:19:42;;;;;;;8.70;7.80;;;;;;;6.79;100.00;96327.78;7401120;19;20412;-74
2023/05/14 01:22:11;;;;;;;9.00;8.20;;;;;;;6.31;100.00;96260.16;7400548;19;20381;-74
2023/05/14 01:24:37;;;;;;;9.47;8.47;;;;;;;6.84;100.00;96332.16;7401065;19;20389;-74
2023/05/14 01:27:26;;;;;;;11.27;8.13;;;;;;;6.84;100.00;96335.53;7399549;19;20353;-74
2023/05/14 01:30:08;;;;;;;9.50;7.70;;;;;;;6.70;100.00;96321.72;7399786;19;20969;-74
2023/05/14 01:32:37;;;;;;;8.97;8.07;;;;;;;6.54;100.00;96313.41;7399810;19;20781;-74
2023/05/14 01:35:06;;;;;;;9.03;8.23;;;;;;;6.60;100.00;96314.06;7398937;19;20363;-74
2023/05/14 01:37:35;;;;;;;9.17;8.20;;;;;;;6.61;100.00;96313.00;7398824;19;20920;-75
2023/05/14 01:40:04;;;;;;;7.33;6.50;;;;;;;6.55;100.00;96282.69;7397416;19;20436;-74
2023/05/14 01:42:31;;;;;;;9.00;7.17;;;;;;;6.99;100.00;96356.19;7401685;19;20762;-74
2023/05/14 01:44:58;;;;;;;13.53;7.73;;;;;;;6.94;100.00;96350.25;7398442;19;20372;-74
2023/05/14 01:47:25;;;;;;;6.90;6.40;;;;;;;6.79;100.00;96323.28;7398929;19;20385;-74
2023/05/14 01:49:52;;;;;;;6.43;5.90;;;;;;;6.95;100.00;96357.88;7397605;19;20397;-74
2023/05/14 01:52:20;;;;;;;8.83;7.93;;;;;;;6.76;100.00;96354.66;7399908;19;20719;-74
2023/05/14 01:54:47;;;;;;;7.20;6.50;;;;;;;6.36;100.00;96303.88;7398171;19;20933;-74
2023/05/14 01:57:14;;;;;;;7.93;7.13;;;;;;;6.47;100.00;96326.97;7399543;19;20379;-74
2023/05/14 01:59:41;;;;;;;7.90;7.10;;;;;;;6.67;100.00;96356.44;7394693;19;20438;-74
2023/05/14 02:02:08;;;;;;;8.67;7.87;;;;;;;6.48;100.00;96325.91;7400034;19;20472;-74
2023/05/14 02:04:35;;;;;;;9.00;8.20;;;;;;;6.47;100.00;96353.25;7400180;19;20372;-75
2023/05/14 02:07:02;;;;;;;8.10;7.40;;;;;;;6.32;100.00;96339.69;7401101;19;20377;-74
2023/05/14 02:09:29;;;;;;;7.83;7.13;;;;;;;6.29;100.00;96332.41;7397603;19;20406;-74
2023/05/14 02:11:57;;;;;;;7.90;7.20;;;;;;;6.43;100.00;96343.66;7399268;19;20405;-74
2023/05/14 02:14:23;;;;;;;9.93;8.80;;;;;;;6.23;100.00;96313.38;7397994;19;20404;-74
2023/05/14 02:16:50;;;;;;;8.20;7.40;;;;;;;6.50;100.00;96343.97;7399374;19;20409;-74
2023/05/14 02:19:17;;;;;;;7.60;6.90;;;;;;;6.13;100.00;96285.50;7397313;19;20934;-74
2023/05/14 02:21:44;;;;;;;8.13;7.33;;;;;;;6.46;100.00;96338.56;7399425;19;20384;-74
2023/05/14 02:24:11;;;;;;;7.80;7.00;;;;;;;6.36;100.00;96327.50;7398040;19;20907;-74
2023/05/14 02:26:38;;;;;;;8.90;7.00;;;;;;;6.27;100.00;96319.56;7399668;19;20908;-74
2023/05/14 02:29:05;;;;;;;7.43;6.73;;;;;;;6.31;100.00;96325.78;7395912;19;20409;-74
2023/05/14 02:31:32;;;;;;;7.07;6.37;;;;;;;6.23;100.00;96311.53;7421196;19;20361;-77
2023/05/14 02:34:03;;;;;;;8.07;7.03;;;;;;;6.34;100.00;96343.56;7432997;19;20368;-77
2023/05/14 02:36:30;;;;;;;10.03;8.17;;;;;;;6.28;100.00;96338.72;7435102;19;20479;-76
2023/05/14 02:38:58;;;;;;;8.47;7.43;;;;;;;6.08;100.00;96298.75;7415452;19;20400;-74
2023/05/14 02:41:25;;;;;;;7.80;6.60;;;;;;;6.36;100.00;96340.66;7400040;19;20429;-74
2023/05/14 02:43:52;;;;;;;7.27;6.60;;;;;;;6.31;100.00;96328.41;7397537;19;20360;-74
2023/05/14 02:46:20;;;;;;;7.57;6.90;;;;;;;6.21;100.00;96318.91;7399260;19;20397;-74
2023/05/14 02:48:46;;;;;;;10.37;8.10;;;;;;;6.21;100.00;96321.53;7395727;19;20349;-74
2023/05/14 02:51:13;;;;;;;8.70;8.00;;;;;;;6.00;100.00;96285.56;7397190;19;20758;-74
2023/05/14 02:53:40;;;;;;;6.60;6.07;;;;;;;6.06;100.00;96331.63;7397742;19;20385;-75
2023/05/14 02:56:07;;;;;;;7.90;5.90;;;;;;;6.03;100.00;96327.75;7398378;19;20413;-75
2023/05/14 02:58:34;;;;;;;6.90;6.20;;;;;;;5.92;100.00;96321.94;7399050;19;20376;-75
2023/05/14 03:01:01;;;;;;;7.00;6.40;;;;;;;5.74;100.00;96301.81;7394202;19;20424;-75
2023/05/14 03:03:29;;;;;;;7.40;6.67;;;;;;;5.83;100.00;96307.16;7396984;19;20384;-75
2023/05/14 03:05:56;;;;;;;7.10;6.40;;;;;;;5.84;100.00;96309.47;7397141;19;20360;-75
2023/05/14 03:08:23;;;;;;;6.90;6.20;;;;;;;5.85;100.00;96316.28;7395997;19;20389;-75
2023/05/14 03:10:50;;;;;;;8.20;7.37;;;;;;;5.78;100.00;96310.69;7392873;19;20449;-75
2023/05/14 03:13:19;;;;;;;7.17;6.40;;;;;;;5.88;100.00;96335.94;7397004;19;20742;-75
2023/05/14 03:15:47;;;;;;;7.37;6.30;;;;;;;5.78;100.00;96331.66;7395162;19;20400;-75
2023/05/14 03:18:14;;;;;;;6.93;6.30;;;;;;;5.76;100.00;96314.66;7397384;19;20742;-75
2023/05/14 03:20:41;;;;;;;6.80;6.20;;;;;;;5.56;100.00;96300.91;7393855;19;20424;-75
2023/05/14 03:23:08;;;;;;;6.23;5.60;;;;;;;5.63;100.00;96303.91;7396773;19;20861;-75
2023/05/14 03:25:35;;;;;;;6.63;6.00;;;;;;;5.63;100.00;96305.75;7395547;19;20341;-75
2023/05/14 03:28:02;;;;;;;6.10;5.60;;;;;;;5.73;100.00;96331.75;7395857;19;20349;-75
2023/05/14 03:30:29;;;;;;;7.80;6.57;;;;;;;5.49;100.00;96325.97;7393896;19;20968;-75
2023/05/14 03:32:56;;;;;;;7.30;6.60;;;;;;;5.41;100.00;96322.19;7396622;19;20349;-74
2023/05/14 03:35:23;;;;;;;7.10;6.50;;;;;;;5.40;100.00;96317.25;7395550;19;20852;-75
2023/05/14 03:37:51;;;;;;;9.53;6.43;;;;;;;5.42;100.00;96318.50;7396799;19;20377;-75
2023/05/14 03:40:18;;;;;;;8.17;7.37;;;;;;;5.49;100.00;96328.59;7393982;19;20400;-74
2023/05/14 03:42:45;;;;;;;7.57;6.43;;;;;;;5.25;100.00;96298.13;7398108;19;20397;-75
2023/05/14 03:45:14;;;;;;;7.10;6.60;;;;;;;5.53;100.00;96334.81;7394897;19;20394;-75
2023/05/14 03:47:41;;;;;;;7.77;6.97;;;;;;;5.14;100.00;96303.84;7396234;19;20372;-75
2023/05/14 03:50:08;;;;;;;8.57;7.77;;;;;;;5.12;100.00;96298.13;7394340;19;20416;-74
2023/05/14 03:52:35;;;;;;;8.93;8.10;;;;;;;5.23;100.00;96308.13;7396306;19;20463;-74
2023/05/14 03:55:02;;;;;;;8.60;7.90;;;;;;;5.24;100.00;96317.53;7394796;19;20368;-75
2023/05/14 03:57:29;;;;;;;9.13;8.03;;;;;;;4.92;100.00;96278.31;7396688;19;20400;-74
2023/05/14 03:59:56;;;;;;;8.50;7.70;;;;;;;5.31;100.00;96319.75;7394309;19;20425;-74
2023/05/14 04:02:23;;;;;;;9.07;7.33;;;;;;;5.25;100.00;96306.00;7397013;19;20511;-74
2023/05/14 04:04:50;;;;;;;10.57;7.30;;;;;;;5.58;100.00;96311.09;7394862;19;20388;-74
2023/05/14 04:07:19;;;;;;;8.60;7.70;;;;;;;5.68;100.00;96313.50;7396305;19;20377;-75
2023/05/14 04:09:45;;;;;;;7.30;6.60;;;;;;;5.81;100.00;96315.31;7394081;19;20404;-74
2023/05/14 04:12:12;;;;;;;8.33;7.63;;;;;;;5.74;100.00;96303.66;7396376;19;20420;-74
2023/05/14 04:14:39;;;;;;;8.47;7.63;;;;;;;5.83;100.00;96313.19;7394567;19;20396;-75
2023/05/14 04:17:06;;;;;;;9.23;8.23;;;;;;;5.80;100.00;96287.53;7396255;19;20385;-74
2023/05/14 04:19:33;;;;;;;9.70;8.70;;;;;;;5.99;100.00;96315.50;7394213;19;20424;-74
2023/05/14 04:22:01;;;;;;;9.30;8.37;;;;;;;5.78;100.00;96281.81;7393576;19;20694;-74
2023/05/14 04:24:28;;;;;;;10.10;8.67;;;;;;;6.04;100.00;96307.53;7402237;19;20408;-75
2023/05/14 04:26:55;;;;;;;10.10;8.57;;;;;;;5.99;100.00;96292.66;7400855;19;20385;-74
2023/05/14 04:29:22;;;;;;;10.27;8.20;;;;;;;5.88;100.00;96258.00;7399800;19;20483;-74
2023/05/14 04:31:49;;;;;;;9.23;8.23;;;;;;;6.26;100.00;96283.88;7400753;19;20504;-74
2023/05/14 04:34:16;;;;;;;10.30;9.30;;;;;;;6.47;100.00;96305.97;7403689;19;20344;-74
2023/05/14 04:36:43;;;;;;;9.30;8.40;;;;;;;6.49;100.00;96297.78;7400649;19;20425;-74
2023/05/14 04:39:11;;;;;;;10.40;8.70;;;;;;;6.28;100.00;96263.38;7401916;19;20487;-74
2023/05/14 04:41:38;;;;;;;8.73;7.83;;;;;;;6.50;100.00;96286.97;7400687;19;20516;-74
2023/05/14 04:44:05;;;;;;;11.73;8.20;;;;;;;6.51;100.00;96282.50;7401877;19;20393;-74
2023/05/14 04:46:32;;;;;;;9.20;7.73;;;;;;;6.46;100.00;96272.13;7400210;19;20961;-74
2023/05/14 04:48:59;;;;;;;8.47;7.57;;;;;;;6.52;100.00;96263.81;7399649;19;20451;-74
2023/05/14 04:51:26;;;;;;;10.33;9.43;;;;;;;6.84;100.00;96292.72;7401699;19;20390;-75
2023/05/14 04:53:53;;;;;;;9.93;8.93;;;;;;;6.68;100.00;96280.00;7403047;19;20888;-74
2023/05/14 04:56:20;;;;;;;10.83;9.73;;;;;;;6.64;100.00;96254.59;7400379;19;20396;-74
2023/05/14 04:58:47;;;;;;;10.40;9.30;;;;;;;6.78;100.00;96284.19;7401356;19;20400;-74
2023/05/14 05:01:14;;;;;;;10.20;9.10;;;;;;;6.92;100.00;96295.38;7397718;19;20499;-74
2023/05/14 05:03:41;;;;;;;12.20;9.13;;;;;;;7.02;100.00;96292.47;7402890;19;20348;-74
2023/05/14 05:06:08;;;;;;;11.07;9.07;;;;;;;7.07;100.00;96281.81;7399857;19;20382;-74
2023/05/14 05:08:35;;;;;;;11.30;8.63;;;;;;;7.10;100.00;96275.22;7400834;19;20831;-74
2023/05/14 05:11:02;;;;;;;10.83;8.93;;;;;;;7.24;100.00;96275.88;7399379;19;20776;-74
2023/05/14 05:13:31;;;;;;;10.70;9.10;;;;;;;7.20;100.00;96263.63;7404971;19;20467;-74
2023/05/14 05:15:57;;;;;;;10.87;9.00;;;;;;;7.28;100.00;96252.34;7401393;19;20348;-74
2023/05/14 05:18:24;;;;;;;10.00;9.00;;;;;;;7.72;100.00;96302.09;7401402;19;20445;-74
2023/05/14 05:20:51;;;;;;;11.70;10.10;;;;;;;7.69;100.00;96283.53;7398739;19;20476;-74
2023/05/14 05:23:18;;;;;;;11.73;10.20;;;;;;;7.80;100.00;96287.41;7399153;19;20369;-74
2023/05/14 05:25:45;;;;;;;10.40;9.33;;;;;;;7.86;100.00;96277.50;7400060;19;20436;-74
2023/05/14 05:28:12;;;;;;;10.83;9.80;;;;;;;8.03;100.00;96289.91;7401772;19;20444;-74
2023/05/14 05:30:39;;;;;;;10.30;9.20;;;;;;;8.32;100.00;96302.44;7397820;19;20436;-74
2023/05/14 05:33:06;;;;;;;10.07;9.17;;;;;;;8.04;100.00;96252.72;7400350;19;20405;-75
2023/05/14 05:35:33;;;;;;;10.90;9.20;;;;;;;8.49;100.00;96297.94;7399335;19;20905;-75
2023/05/14 05:38:00;;;;;;;8.33;7.53;;;;;;;8.47;100.00;96281.66;7400848;19;20404;-74
2023/05/14 05:40:27;;;;;;;9.40;7.77;;;;;;;8.68;100.00;96296.78;7397839;19;20436;-74
2023/05/14 05:42:54;;;;;;;8.63;7.43;;;;;;;8.72;100.00;96282.69;7402647;19;20356;-74
2023/05/14 05:45:21;;;;;;;9.27;8.30;;;;;;;8.81;100.00;96272.09;7399156;19;20357;-74
2023/05/14 05:47:48;;;;;;;7.50;6.73;;;;;;;9.15;100.00;96305.50;7400997;19;20412;-74
2023/05/14 05:50:15;;;;;;;9.80;8.23;;;;;;;9.16;100.00;96299.13;7397796;19;20413;-74
2023/05/14 05:52:45;;;;;;;9.07;7.50;;;;;;;9.16;100.00;96285.94;7402147;19;20358;-75
2023/05/14 05:55:12;;;;;;;8.90;7.83;;;;;;;9.43;100.00;96319.00;7399069;19;20397;-74
2023/05/14 05:57:39;;;;;;;11.47;8.37;;;;;;;9.45;100.00;96304.41;7400866;19;20392;-74
2023/05/14 06:00:12;;;;;;;8.57;7.33;;;;;;;9.53;100.00;96312.59;7399471;19;20417;-75
2023/05/14 06:02:42;;;;;;;7.73;6.93;;;;;;;9.59;100.00;96317.38;7399780;19;20415;-74
2023/05/14 06:05:10;;;;;;;7.33;6.60;;;;;;;9.55;100.00;96310.41;7399520;19;20401;-75
2023/05/14 06:07:37;;;;;;;8.13;7.37;;;;;;;9.30;100.00;96278.56;7398347;19;20409;-75
2023/05/14 06:10:05;;;;;;;9.10;8.20;;;;;;;9.38;100.00;96274.34;7398264;19;20821;-75
2023/05/14 06:12:32;;;;;;;9.27;8.37;;;;;;;9.67;100.00;96302.59;7401525;19;20349;-75
2023/05/14 06:14:59;;;;;;;8.87;7.90;;;;;;;9.75;100.00;96322.88;7398861;19;20895;-74
2023/05/14 06:17:26;;;;;;;7.67;6.80;;;;;;;9.75;100.00;96322.88;7396896;19;20926;-74
2023/05/14 06:19:52;;;;;;;7.80;7.10;;;;;;;9.56;100.00;96275.00;7397605;19;20474;-74
2023/05/14 06:22:19;;;;;;;8.93;8.00;;;;;;;9.83;100.00;96322.03;7398348;19;20372;-74
2023/05/14 06:24:47;;;;;;;11.53;7.13;;;;;;;9.64;100.00;96282.88;7400105;19;20754;-74
2023/05/14 06:27:14;;;;;;;6.87;6.27;;;;;;;9.85;100.00;96313.78;7396731;19;20426;-74
2023/05/14 06:29:40;;;;;;;8.27;7.00;;;;;;;9.91;100.00;96294.81;7396843;19;20954;-74
2023/05/14 06:32:08;;;;;;;9.40;7.30;;;;;;;9.83;100.00;96287.72;7397219;19;20337;-75
2023/05/14 06:34:35;;;;;;;7.87;7.17;;;;;;;10.10;100.00;96302.28;7399023;19;20411;-74
2023/05/14 06:37:02;;;;;;;7.80;7.00;;;;;;;10.27;100.00;96314.59;7397643;19;20362;-74
2023/05/14 06:39:29;;;;;;;8.67;7.07;;;;;;;10.16;100.00;96314.19;7399543;19;20437;-75
2023/05/14 06:41:56;;;;;;;8.60;7.80;;;;;;;10.22;100.00;96325.38;7396921;19;20901;-75
2023/05/14 06:44:23;;;;;;;7.73;6.93;;;;;;;10.16;100.00;96302.88;7398468;19;20384;-74
2023/05/14 06:46:50;;;;;;;8.57;7.33;;;;;;;10.31;100.00;96321.56;7397129;19;20383;-75
2023/05/14 06:49:18;;;;;;;8.80;6.73;;;;;;;10.34;100.00;96315.63;7397630;19;20447;-75
2023/05/14 06:51:44;;;;;;;6.77;6.17;;;;;;;10.23;100.00;96317.09;7397260;19;20373;-75
2023/05/14 06:54:12;;;;;;;7.40;6.57;;;;;;;10.22;100.00;96301.59;7398168;19;20356;-75
2023/05/14 06:56:38;;;;;;;6.50;5.57;;;;;;;10.41;100.00;96330.94;7396759;19;20341;-75
2023/05/14 06:59:06;;;;;;;6.30;5.80;;;;;;;10.42;100.00;96337.03;7398054;19;20405;-74
2023/05/14 07:01:32;;;;;;;6.20;5.60;;;;;;;10.20;100.00;96283.38;7396430;19;20365;-74
2023/05/14 07:03:59;;;;;;;7.83;5.80;;;;;;;10.36;100.00;96308.13;7398068;19;20360;-75
2023/05/14 07:06:26;;;;;;;9.80;6.27;;;;;;;10.44;100.00;96329.53;7396131;19;20360;-74
2023/05/14 07:08:54;;;;;;;8.07;7.27;;;;;;;10.44;100.00;96325.03;7397743;19;20524;-74
2023/05/14 07:11:21;;;;;;;7.07;6.40;;;;;;;10.20;100.00;96290.53;7394497;19;20405;-74
2023/05/14 07:13:47;;;;;;;11.93;7.50;;;;;;;10.40;100.00;96300.31;7397603;19;20882;-75
2023/05/14 07:16:14;;;;;;;7.50;6.77;;;;;;;10.22;100.00;96273.28;7397814;19;20381;-75
2023/05/14 07:18:42;;;;;;;7.37;6.63;;;;;;;10.38;100.00;96288.53;7399385;19;20886;-75
2023/05/14 07:21:10;;;;;;;7.57;6.13;;;;;;;10.54;100.00;96315.91;7394787;19;20449;-74
2023/05/14 07:23:40;;;;;;;7.53;6.73;;;;;;;10.51;100.00;96290.91;7397385;19;20963;-75
2023/05/14 07:26:07;;;;;;;11.40;6.07;;;;;;;10.66;100.00;96294.78;7397303;19;20721;-75
2023/05/14 07:28:34;;;;;;;9.23;6.27;;;;;;;10.69;100.00;96299.44;7393904;19;20471;-74
2023/05/14 07:31:07;;;;;;;7.63;6.47;;;;;;;10.86;100.00;96279.97;7395644;19;20389;-75
2023/05/14 07:33:35;;;;;;;8.07;6.47;;;;;;;10.94;100.00;96284.38;7394569;19;20417;-75
2023/05/14 07:36:02;;;;;;;7.30;6.50;;;;;;;10.92;100.00;96297.94;7397267;19;20365;-75
2023/05/14 07:38:29;;;;;;;7.87;7.17;;;;;;;10.71;100.00;96270.03;7395646;19;20415;-75
2023/05/14 07:40:57;;;;;;;9.20;6.63;;;;;;;10.75;100.00;96300.00;7390910;19;20766;-75
2023/05/14 07:43:24;;;;;;;11.13;7.40;;;;;;;10.76;100.00;96296.25;7395628;19;20885;-74
2023/05/14 07:45:51;;;;;;;7.67;6.87;;;;;;;10.82;100.00;96292.31;7395956;19;20448;-75
2023/05/14 07:48:18;;;;;;;8.20;6.60;;;;;;;10.86;100.00;96307.19;7394258;19;20620;-75
2023/05/14 07:50:47;;;;;;;8.20;7.40;;;;;;;10.93;100.00;96310.06;7394411;19;20428;-74
2023/05/14 07:53:14;;;;;;;7.73;7.03;;;;;;;10.97;100.00;96288.25;7394729;19;20365;-75
2023/05/14 07:55:43;;;;;;;8.87;7.93;;;;;;;10.88;100.00;96285.69;7395928;19;20393;-74
2023/05/14 07:58:10;;;;;;;7.93;7.00;;;;;;;10.91;100.00;96314.91;7395671;19;20389;-75
2023/05/14 08:00:37;;;;;;;10.70;9.70;;;;;;;10.99;100.00;96293.97;7395195;19;20416;-74
2023/05/14 08:03:04;;;;;;;7.77;7.13;;;;;;;10.68;100.00;96276.72;7394490;19;20376;-75
2023/05/14 08:05:31;;;;;;;8.33;7.50;;;;;;;10.87;100.00;96278.88;7396112;19;20365;-74
2023/05/14 08:07:58;;;;;;;9.07;8.20;;;;;;;10.97;100.00;96293.53;7394352;19;20917;-75
2023/05/14 08:10:25;;;;;;;9.77;8.87;;;;;;;10.96;100.00;96284.84;7394045;19;20887;-74
2023/05/14 08:12:53;;;;;;;8.20;7.50;;;;;;;11.01;100.00;96305.78;7396322;19;20359;-74
2023/05/14 08:15:20;;;;;;;9.83;8.93;;;;;;;10.94;100.00;96269.28;7395884;19;20922;-74
2023/05/14 08:17:47;;;;;;;9.40;8.33;;;;;;;10.97;100.00;96293.53;7394832;19;20380;-75
2023/05/14 08:20:14;;;;;;;8.00;7.20;;;;;;;10.82;100.00;96268.50;7395261;19;20496;-75
2023/05/14 08:22:41;;;;;;;14.13;7.40;;;;;;;10.91;100.00;96272.56;7394261;19;20920;-75
2023/05/14 08:25:08;;;;;;;8.13;7.33;;;;;;;11.04;100.00;96307.75;7395901;19;20361;-75
2023/05/14 08:27:35;;;;;;;8.90;8.00;;;;;;;10.98;100.00;96284.50;7394871;19;20381;-75
2023/05/14 08:30:03;;;;;;;10.03;9.03;;;;;;;11.00;100.00;96298.94;7394636;19;20455;-75
2023/05/14 08:32:30;;;;;;;8.93;8.03;;;;;;;10.67;100.00;96251.38;7396083;19;20370;-75
2023/05/14 08:34:57;;;;;;;9.17;7.80;;;;;;;10.73;100.00;96286.34;7395406;19;20875;-75
2023/05/14 08:37:24;;;;;;;11.00;9.43;;;;;;;10.80;100.00;96292.63;7394684;19;21008;-75
2023/05/14 08:39:51;;;;;;;10.77;7.80;;;;;;;10.85;100.00;96289.00;7392483;19;20967;-74
2023/05/14 08:42:20;;;;;;;9.43;8.33;;;;;;;10.92;100.00;96294.50;7393903;19;20405;-74
2023/05/14 08:44:51;;;;;;;10.10;9.07;;;;;;;10.65;100.00;96257.00;7392706;19;20365;-75
2023/05/14 08:47:20;;;;;;;11.33;9.00;;;;;;;10.84;100.00;96282.94;7394919;19;20380;-75
2023/05/14 08:49:56;;;;;;;10.83;9.50;;;;;;;11.04;100.00;96291.13;7391757;19;20437;-75
2023/05/14 08:52:23;;;;;;;10.27;8.70;;;;;;;10.55;100.00;96233.66;7395084;19;20368;-74
2023/05/14 08:54:52;;;;;;;8.47;7.60;;;;;;;10.86;100.00;96283.38;7394272;19;20388;-74
2023/05/14 08:57:20;;;;;;;8.80;7.97;;;;;;;10.79;100.00;96264.63;7396316;19;20333;-74
2023/05/14 08:59:47;;;;;;;9.30;8.50;;;;;;;10.96;100.00;96263.69;7392723;19;20401;-75
2023/05/14 09:02:16;;;;;;;8.47;7.70;;;;;;;10.88;100.00;96230.16;7394956;19;20360;-75
2023/05/14 09:04:43;;;;;;;8.70;7.77;;;;;;;11.23;100.00;96284.19;7400248;19;20392;-74
2023/05/14 09:07:11;;;;;;;9.57;8.60;;;;;;;11.08;100.00;96255.72;7397812;19;20421;-74
2023/05/14 09:09:38;;;;;;;10.10;8.77;;;;;;;11.43;100.00;96287.03;7398170;19;20428;-74
2023/05/14 09:12:05;;;;;;;9.37;8.30;;;;;;;11.58;100.00;96283.72;7403904;19;20715;-75
2023/05/14 09:14:35;;;;;;;9.60;8.60;;;;;;;11.30;100.00;96272.25;7403091;19;20388;-75
2023/05/14 09:17:03;;;;;;;8.53;7.67;;;;;;;11.12;100.00;96237.31;7405742;19;20718;-75
2023/05/14 09:19:30;;;;;;;9.60;7.90;;;;;;;11.12;100.00;96242.63;7427186;19;20420;-76
2023/05/14 09:21:58;;;;;;;9.73;8.93;;;;;;;11.19;100.00;96237.53;7437409;19;20373;-76
2023/05/14 09:24:29;;;;;;;8.90;7.47;;;;;;;11.63;100.00;96259.66;7435484;19;20412;-75
2023/05/14 09:26:57;;;;;;;9.80;8.80;;;;;;;12.03;100.00;96258.94;7417955;19;20385;-74
2023/05/14 09:29:25;;;;;;;9.17;8.37;;;;;;;12.22;100.00;96251.13;7399954;19;20400;-74
2023/05/14 09:31:52;;;;;;;8.43;7.73;;;;;;;12.35;100.00;96242.00;7400210;19;20820;-74
2023/05/14 09:34:39;;;;;;;8.00;7.20;;;;;;;12.61;100.00;96224.84;7405500;19;20453;-75
2023/05/14 09:37:07;;;;;;;9.27;8.40;;;;;;;12.82;100.00;96251.09;7406010;19;20416;-75
2023/05/14 09:39:36;;;;;;;7.67;6.87;;;;;;;13.07;100.00;96257.78;7401046;19;20441;-74
2023/05/14 09:42:04;;;;;;;7.90;7.20;;;;;;;13.20;100.00;96223.97;7403303;19;20387;-74
2023/05/14 09:44:31;;;;;;;7.67;7.03;;;;;;;13.16;100.00;96215.16;7402211;19;20377;-74
2023/05/14 09:46:58;;;;;;;8.33;7.60;;;;;;;13.20;100.00;96227.41;7403722;19;20448;-75
2023/05/14 09:49:25;;;;;;;8.90;7.97;;;;;;;14.00;100.00;96254.53;7402296;19;20750;-74
2023/05/14 09:51:52;;;;;;;7.80;7.00;;;;;;;13.32;100.00;96213.25;7399677;19;20392;-74
2023/05/14 09:54:19;;;;;;;11.20;10.40;;;;;;;13.95;100.00;96242.28;7398169;19;20372;-74
2023/05/14 09:56:46;;;;;;;7.00;6.30;;;;;;;14.00;100.00;96227.94;7398785;19;20454;-74
2023/05/14 09:59:13;;;;;;;5.27;4.83;;;;;;;14.24;100.00;96214.34;7399972;19;20731;-75
2023/05/14 10:01:42;;;;;;;6.10;5.50;;;;;;;14.49;100.00;96236.88;7398630;19;20431;-73
2023/05/14 10:04:10;;;;;;;7.27;5.30;;;;;;;14.84;100.00;96217.34;7402127;19;20353;-72
2023/05/14 10:06:39;;;;;;;5.47;4.97;;;;;;;15.33;100.00;96241.28;7401481;19;20882;-72
2023/05/14 10:09:10;;;;;;;7.00;6.37;;;;;;;14.39;100.00;96244.63;7397011;19;20393;-73
2023/05/14 10:11:42;;;;;;;6.03;4.60;;;;;;;14.28;100.00;96217.06;7399660;19;20395;-72
2023/05/14 10:14:23;;;;;;;6.03;5.53;;;;;;;14.49;100.00;96226.25;7400356;19;20353;-72
2023/05/14 10:16:52;;;;;;;7.27;6.67;;;;;;;14.90;100.00;96233.75;7400040;19;20383;-72
2023/05/14 10:19:22;;;;;;;8.73;7.87;;;;;;;15.01;100.00;96176.91;7395709;19;20820;-72
2023/05/14 10:22:02;;;;;;;6.50;5.90;;;;;;;14.90;100.00;96226.53;7398860;19;20353;-72
2023/05/14 10:24:31;;;;;;;7.03;6.43;;;;;;;14.44;100.00;96212.47;7398255;19;20396;-72
2023/05/14 10:26:58;;;;;;;6.10;5.50;;;;;;;13.88;100.00;96200.38;7403330;19;20364;-72
2023/05/14 10:29:33;;;;;;;5.80;5.37;;;;;;;13.92;100.00;96205.00;7410400;19;20401;-72
2023/05/14 10:32:08;;;;;;;6.90;6.30;;;;;;;14.24;100.00;96214.34;7402919;19;20365;-72
2023/05/14 10:34:42;;;;;;;7.20;5.97;;;;;;;14.48;100.00;96213.28;7401498;19;20372;-71
2023/05/14 10:37:13;;;;;;;6.47;5.93;;;;;;;14.24;100.00;96214.34;7398387;19;20707;-71
2023/05/14 10:39:48;;;;;;;6.90;6.30;;;;;;;14.25;100.00;96223.09;7399949;19;20802;-71
2023/05/14 10:42:17;;;;;;;7.00;6.37;;;;;;;14.11;100.00;96186.38;7398326;19;20404;-71
2023/05/14 10:44:57;;;;;;;6.30;5.80;;;;;;;14.54;100.00;96211.88;7396530;19;20341;-71
2023/05/14 10:47:28;;;;;;;9.50;6.50;;;;;;;14.14;100.00;96170.47;7398466;19;20410;-71
2023/05/14 10:49:57;;;;;;;5.80;5.33;;;;;;;14.68;100.00;96195.38;7395744;19;20745;-70
2023/05/14 10:52:25;;;;;;;6.40;5.90;;;;;;;15.48;100.00;96220.94;7398619;19;20929;-71
2023/05/14 10:54:56;;;;;;;6.10;5.60;;;;;;;15.05;100.00;96209.66;7396622;19;20358;-70
2023/05/14 10:57:28;;;;;;;6.67;6.10;;;;;;;15.10;100.00;96210.50;7398197;19;20365;-72
2023/05/14 10:59:58;;;;;;;7.13;6.43;;;;;;;14.70;100.00;96212.53;7397837;19;20405;-72
2023/05/14 11:02:26;;;;;;;6.80;6.20;;;;;;;14.60;100.00;96210.47;7398489;19;20377;-72
2023/05/14 11:04:57;;;;;;;8.10;6.77;;;;;;;14.74;100.00;96207.28;7396810;19;20363;-72
2023/05/14 11:07:30;;;;;;;8.27;7.47;;;;;;;15.53;100.00;96209.22;7396996;19;20361;-72
2023/05/14 11:10:20;;;;;;;9.20;8.30;;;;;;;15.59;100.00;96218.41;7396552;19;20424;-71
2023/05/14 11:12:49;;;;;;;6.67;6.07;;;;;;;15.30;100.00;96187.94;7396279;19;20996;-71
2023/05/14 11:15:19;;;;;;;7.80;6.03;;;;;;;14.99;100.00;96173.06;7398897;19;20869;-71
2023/05/14 11:17:47;;;;;;;10.83;9.90;;;;;;;15.71;100.00;96206.78;7395822;19;20950;-71
2023/05/14 11:20:15;;;;;;;7.43;6.57;;;;;;;15.36;100.00;96203.28;7399072;19;20500;-72
2023/05/14 11:22:43;;;;;;;7.43;6.60;;;;;;;15.44;100.00;96201.47;7399986;19;20349;-72
2023/05/14 11:25:14;;;;;;;6.90;6.40;;;;;;;15.51;100.00;96185.59;7400888;19;20459;-72
2023/05/14 11:27:45;;;;;;;6.33;5.73;;;;;;;15.26;100.00;96179.91;7398566;19;20352;-72
2023/05/14 11:30:12;;;;;;;8.50;7.63;;;;;;;15.29;100.00;96199.72;7399226;19;20492;-72